createdAt,value
2017-07-18T00:01:04.501Z,41.20
2017-07-18T00:03:32.568Z,40.90
2017-07-18T00:06:00.560Z,40.90
2017-07-18T00:08:28.744Z,40.90
2017-07-18T00:10:56.581Z,41.00
2017-07-18T00:13:25.095Z,41.20
2017-07-18T00:15:53.371Z,41.80
2017-07-18T00:18:21.444Z,41.10
2017-07-18T00:20:50.595Z,41.10
2017-07-18T00:23:19.786Z,41.70
2017-07-18T00:25:48.450Z,41.00
2017-07-18T00:28:16.600Z,41.20
2017-07-18T00:30:44.107Z,41.20
2017-07-18T00:33:11.770Z,41.20
2017-07-18T00:35:39.276Z,41.30
2017-07-18T00:38:07.168Z,41.40
2017-07-18T00:40:34.714Z,41.20
2017-07-18T00:43:02.335Z,41.10
2017-07-18T00:45:31.101Z,42.10
2017-07-18T00:47:58.967Z,41.50
2017-07-18T00:50:27.054Z,41.50
2017-07-18T00:52:55.072Z,41.70
2017-07-18T00:55:22.784Z,41.60
2017-07-18T00:57:51.623Z,41.90
2017-07-18T01:00:19.293Z,41.80
2017-07-18T01:02:47.663Z,42.30
2017-07-18T01:05:16.337Z,42.30
2017-07-18T01:07:43.984Z,42.20
2017-07-18T01:10:12.270Z,42.50
2017-07-18T01:12:40.790Z,42.70
2017-07-18T01:15:08.298Z,42.60
2017-07-18T01:17:36.555Z,42.90
2017-07-18T01:20:04.395Z,42.60
2017-07-18T01:22:32.120Z,42.80
2017-07-18T01:24:59.887Z,42.90
2017-07-18T01:27:28.310Z,42.90
2017-07-18T01:29:55.960Z,42.90
2017-07-18T01:32:23.495Z,42.90
2017-07-18T01:34:51.029Z,43.10
2017-07-18T01:37:18.642Z,43.10
2017-07-18T01:39:46.151Z,43.20
2017-07-18T01:42:13.901Z,43.10
2017-07-18T01:44:41.526Z,43.00
2017-07-18T01:47:09.251Z,43.20
2017-07-18T01:49:37.879Z,43.90
2017-07-18T01:52:05.645Z,43.10
2017-07-18T01:54:33.414Z,43.20
2017-07-18T01:57:01.508Z,43.20
2017-07-18T01:59:28.996Z,43.10
2017-07-18T02:01:57.243Z,42.80
2017-07-18T02:04:24.740Z,43.10
2017-07-18T02:06:52.987Z,43.20
2017-07-18T02:09:20.474Z,43.20
2017-07-18T02:11:48.733Z,42.90
2017-07-18T02:14:16.227Z,42.90
2017-07-18T02:16:43.693Z,43.00
2017-07-18T02:19:11.185Z,42.90
2017-07-18T02:21:38.751Z,42.90
2017-07-18T02:24:06.232Z,42.90
2017-07-18T02:26:33.718Z,42.70
2017-07-18T02:29:01.196Z,43.20
2017-07-18T02:31:28.682Z,42.90
2017-07-18T02:33:56.179Z,42.70
2017-07-18T02:36:24.437Z,42.10
2017-07-18T02:38:51.923Z,42.50
2017-07-18T02:41:20.191Z,42.70
2017-07-18T02:43:48.499Z,43.60
2017-07-18T02:46:15.996Z,42.80
2017-07-18T02:48:43.491Z,42.60
2017-07-18T02:51:11.733Z,43.40
2017-07-18T02:53:40.189Z,42.80
2017-07-18T02:56:07.676Z,42.80
2017-07-18T02:58:35.155Z,42.60
2017-07-18T03:01:02.645Z,43.00
2017-07-18T03:03:30.137Z,43.30
2017-07-18T03:05:57.755Z,43.30
2017-07-18T03:08:26.075Z,43.60
2017-07-18T03:10:53.578Z,43.50
2017-07-18T03:13:21.835Z,43.70
2017-07-18T03:15:49.307Z,43.40
2017-07-18T03:18:16.798Z,43.50
2017-07-18T03:20:44.288Z,43.60
2017-07-18T03:23:11.766Z,43.90
2017-07-18T03:25:39.419Z,44.00
2017-07-18T03:28:06.919Z,44.00
2017-07-18T03:30:35.211Z,44.30
2017-07-18T03:33:02.751Z,44.30
2017-07-18T03:35:30.996Z,44.60
2017-07-18T03:37:58.535Z,44.40
2017-07-18T03:43:02.772Z,44.60
2017-07-18T03:45:30.288Z,44.70
2017-07-18T03:47:58.546Z,44.50
2017-07-18T03:50:26.035Z,44.40
2017-07-18T03:52:53.528Z,44.50
2017-07-18T03:55:21.021Z,45.00
2017-07-18T03:57:48.686Z,44.40
2017-07-18T04:00:16.190Z,44.40
2017-07-18T04:02:43.667Z,44.40
2017-07-18T04:05:11.222Z,44.40
2017-07-18T04:07:38.706Z,44.80
2017-07-18T04:10:06.184Z,44.70
2017-07-18T04:12:33.863Z,44.80
2017-07-18T04:15:02.134Z,45.40
2017-07-18T04:17:29.614Z,45.40
2017-07-18T04:19:57.861Z,46.10
2017-07-18T04:22:25.360Z,46.10
2017-07-18T04:24:52.838Z,46.30
2017-07-18T04:27:20.391Z,46.30
2017-07-18T04:29:47.923Z,46.70
2017-07-18T04:32:16.354Z,46.70
2017-07-18T04:34:43.836Z,46.60
2017-07-18T04:37:11.330Z,46.20
2017-07-18T04:39:38.800Z,46.20
2017-07-18T04:42:06.289Z,45.80
2017-07-18T04:44:33.803Z,45.70
2017-07-18T04:47:01.289Z,45.60
2017-07-18T04:49:28.779Z,45.70
2017-07-18T04:51:56.310Z,45.40
2017-07-18T04:54:23.786Z,45.70
2017-07-18T04:56:51.343Z,45.40
2017-07-18T04:59:19.296Z,45.70
2017-07-18T05:01:46.774Z,45.50
2017-07-18T05:04:14.388Z,45.50
2017-07-18T05:06:42.009Z,45.90
2017-07-18T05:09:09.503Z,45.60
2017-07-18T05:11:37.752Z,45.80
2017-07-18T05:14:05.241Z,45.60
2017-07-18T05:16:33.759Z,45.70
2017-07-18T05:19:02.078Z,45.70
2017-07-18T05:21:29.579Z,45.60
2017-07-18T05:23:57.063Z,45.80
2017-07-18T05:26:24.546Z,46.00
2017-07-18T05:28:52.055Z,45.40
2017-07-18T05:31:19.874Z,45.60
2017-07-18T05:33:47.380Z,45.50
2017-07-18T05:36:14.888Z,45.50
2017-07-18T05:38:42.361Z,45.30
2017-07-18T05:41:09.865Z,45.20
2017-07-18T05:43:37.846Z,44.70
2017-07-18T05:46:05.867Z,44.70
2017-07-18T05:48:33.907Z,44.80
2017-07-18T05:51:01.436Z,44.70
2017-07-18T05:53:29.447Z,44.80
2017-07-18T05:55:57.372Z,44.70
2017-07-18T05:58:25.882Z,44.60
2017-07-18T06:00:53.945Z,44.60
2017-07-18T06:03:22.367Z,44.50
2017-07-18T06:05:50.997Z,44.50
2017-07-18T06:08:19.104Z,44.40
2017-07-18T06:10:48.111Z,44.40
2017-07-18T06:13:15.609Z,43.70
2017-07-18T06:15:43.888Z,43.60
2017-07-18T06:18:11.398Z,43.60
2017-07-18T06:20:39.803Z,43.50
2017-07-18T06:23:07.931Z,43.70
2017-07-18T06:25:36.335Z,43.70
2017-07-18T06:28:05.088Z,42.80
2017-07-18T06:30:32.945Z,42.60
2017-07-18T06:33:01.611Z,43.10
2017-07-18T06:35:30.648Z,42.70
2017-07-18T06:37:58.442Z,42.60
2017-07-18T06:40:26.137Z,42.60
2017-07-18T06:42:55.091Z,41.60
2017-07-18T06:45:23.267Z,41.60
2017-07-18T06:47:52.142Z,41.10
2017-07-18T06:50:21.157Z,40.60
2017-07-18T06:52:49.555Z,40.30
2017-07-18T06:55:17.415Z,40.70
2017-07-18T06:57:46.226Z,40.80
2017-07-18T07:00:16.359Z,40.30
2017-07-18T07:02:45.243Z,40.30
2017-07-18T07:05:13.569Z,40.90
2017-07-18T07:07:41.632Z,40.70
2017-07-18T07:10:09.509Z,40.20
2017-07-18T07:12:37.427Z,39.50
2017-07-18T07:15:06.696Z,39.80
2017-07-18T07:17:34.743Z,39.80
2017-07-18T07:20:02.753Z,39.90
2017-07-18T07:22:30.790Z,40.00
2017-07-18T07:24:58.721Z,41.20
2017-07-18T07:27:27.682Z,39.60
2017-07-18T07:29:55.296Z,39.60
2017-07-18T07:32:23.264Z,39.20
2017-07-18T07:34:51.914Z,39.50
2017-07-18T07:37:19.832Z,40.00
2017-07-18T07:39:50.777Z,39.90
2017-07-18T07:42:19.922Z,39.60
2017-07-18T07:44:47.945Z,39.60
2017-07-18T07:47:17.032Z,38.30
2017-07-18T07:49:45.857Z,38.30
2017-07-18T07:52:14.007Z,38.40
2017-07-18T07:54:42.386Z,38.20
2017-07-18T07:57:10.329Z,39.30
2017-07-18T07:59:39.255Z,38.40
2017-07-18T08:02:07.508Z,37.70
2017-07-18T08:04:35.322Z,38.50
2017-07-18T08:07:03.405Z,37.30
2017-07-18T08:09:31.846Z,38.50
2017-07-18T08:11:59.902Z,37.40
2017-07-18T08:14:28.315Z,38.10
2017-07-18T08:16:56.826Z,37.30
2017-07-18T08:19:24.752Z,36.20
2017-07-18T08:21:52.742Z,37.50
2017-07-18T08:24:21.024Z,35.90
2017-07-18T08:26:49.140Z,35.30
2017-07-18T08:29:19.035Z,35.50
2017-07-18T08:31:48.126Z,35.50
2017-07-18T08:34:16.040Z,37.10
2017-07-18T08:36:44.413Z,35.30
2017-07-18T08:39:12.488Z,35.10
2017-07-18T08:41:41.605Z,35.40
2017-07-18T08:44:10.556Z,36.60
2017-07-18T08:46:39.871Z,41.30
2017-07-18T08:49:08.971Z,41.10
2017-07-18T08:51:39.066Z,41.90
2017-07-18T08:54:08.071Z,36.40
2017-07-18T08:56:37.958Z,35.50
2017-07-18T08:59:06.829Z,36.10
2017-07-18T09:01:36.172Z,35.50
2017-07-18T09:04:04.545Z,36.90
2017-07-18T09:06:32.949Z,40.10
2017-07-18T09:09:00.961Z,37.20
2017-07-18T09:11:29.043Z,37.30
2017-07-18T09:13:57.095Z,41.70
2017-07-18T09:16:26.098Z,38.80
2017-07-18T09:18:55.294Z,41.30
2017-07-18T09:21:23.566Z,39.20
2017-07-18T09:23:52.049Z,44.10
2017-07-18T09:26:20.575Z,38.60
2017-07-18T09:28:48.669Z,38.10
2017-07-18T09:31:17.084Z,37.80
2017-07-18T09:33:45.110Z,43.60
2017-07-18T09:36:13.547Z,34.10
2017-07-18T09:38:41.896Z,33.50
2017-07-18T09:41:10.513Z,26.50
2017-07-18T09:43:38.267Z,25.80
2017-07-18T09:46:06.147Z,28.90
2017-07-18T09:48:34.687Z,28.60
2017-07-18T09:51:04.634Z,27.30
2017-07-18T09:53:33.304Z,27.20
2017-07-18T09:56:01.206Z,24.40
2017-07-18T09:58:29.342Z,23.60
2017-07-18T10:00:58.276Z,25.00
2017-07-18T10:03:26.983Z,25.00
2017-07-18T10:05:54.709Z,26.90
2017-07-18T10:08:22.535Z,28.60
2017-07-18T10:10:51.981Z,30.50
2017-07-18T10:13:20.462Z,30.10
2017-07-18T10:15:48.890Z,30.50
2017-07-18T10:18:16.947Z,30.90
2017-07-18T10:20:44.793Z,35.60
2017-07-18T10:23:12.864Z,38.20
2017-07-18T10:25:41.279Z,38.70
2017-07-18T10:28:10.277Z,38.60
2017-07-18T10:30:38.321Z,38.50
2017-07-18T10:33:07.346Z,38.10
2017-07-18T10:35:35.421Z,36.00
2017-07-18T10:38:03.238Z,38.50
2017-07-18T10:40:31.323Z,34.70
2017-07-18T10:42:59.668Z,35.30
2017-07-18T10:45:27.923Z,36.60
2017-07-18T10:47:55.794Z,37.00
2017-07-18T10:50:25.401Z,40.30
2017-07-18T10:52:53.415Z,39.60
2017-07-18T10:55:21.732Z,35.40
2017-07-18T10:57:49.911Z,36.70
2017-07-18T11:00:18.606Z,36.40
2017-07-18T11:02:46.223Z,35.60
2017-07-18T11:05:14.353Z,39.30
2017-07-18T11:07:44.069Z,33.90
2017-07-18T11:10:12.843Z,38.70
2017-07-18T11:12:40.836Z,38.70
2017-07-18T11:15:09.959Z,39.70
2017-07-18T11:17:38.444Z,39.60
2017-07-18T11:20:07.422Z,34.70
2017-07-18T11:22:35.475Z,36.50
2017-07-18T11:25:04.372Z,36.90
2017-07-18T11:27:33.396Z,35.80
2017-07-18T11:30:02.329Z,35.80
2017-07-18T11:32:30.199Z,35.90
2017-07-18T11:34:57.687Z,39.70
2017-07-18T11:37:27.548Z,34.10
2017-07-18T11:39:55.088Z,35.80
2017-07-18T11:42:23.612Z,38.30
2017-07-18T11:44:51.208Z,38.00
2017-07-18T11:47:20.230Z,39.50
2017-07-18T11:49:48.654Z,35.30
2017-07-18T11:52:17.113Z,34.50
2017-07-18T11:54:45.624Z,36.90
2017-07-18T11:57:14.365Z,38.90
2017-07-18T11:59:43.482Z,40.10
2017-07-18T12:02:11.736Z,38.50
2017-07-18T12:04:39.677Z,37.50
2017-07-18T12:07:08.396Z,38.10
2017-07-18T12:09:37.740Z,38.00
2017-07-18T12:12:06.739Z,40.40
2017-07-18T12:14:35.011Z,39.70
2017-07-18T12:17:03.316Z,36.10
2017-07-18T12:19:32.170Z,32.40
2017-07-18T12:22:00.964Z,32.30
2017-07-18T12:24:28.793Z,36.70
2017-07-18T12:26:57.815Z,37.60
2017-07-18T12:29:25.764Z,39.20
2017-07-18T12:31:54.813Z,32.90
2017-07-18T12:34:24.994Z,38.20
2017-07-18T12:36:52.599Z,38.00
2017-07-18T12:39:21.024Z,33.60
2017-07-18T12:41:48.787Z,33.40
2017-07-18T12:44:17.233Z,37.60
2017-07-18T12:46:46.416Z,35.40
2017-07-18T12:49:14.319Z,35.60
2017-07-18T12:51:41.996Z,37.80
2017-07-18T12:54:09.976Z,33.90
2017-07-18T12:56:38.036Z,34.80
2017-07-18T12:59:06.024Z,38.50
2017-07-18T13:01:34.083Z,34.80
2017-07-18T13:04:02.180Z,33.40
2017-07-18T13:06:30.088Z,36.50
2017-07-18T13:08:58.892Z,39.70
2017-07-18T13:11:26.898Z,39.60
2017-07-18T13:13:54.522Z,36.20
2017-07-18T13:16:22.484Z,39.50
2017-07-18T13:18:52.486Z,38.10
2017-07-18T13:21:20.740Z,38.10
2017-07-18T13:23:48.764Z,37.60
2017-07-18T13:26:16.716Z,38.40
2017-07-18T13:28:45.504Z,38.20
2017-07-18T13:31:14.150Z,39.10
2017-07-18T13:33:41.922Z,39.00
2017-07-18T13:36:09.927Z,38.00
2017-07-18T13:38:39.146Z,39.70
2017-07-18T13:41:07.671Z,39.60
2017-07-18T13:43:35.996Z,37.80
2017-07-18T13:46:03.584Z,38.90
2017-07-18T13:48:31.864Z,38.10
2017-07-18T13:51:00.135Z,34.80
2017-07-18T13:53:28.361Z,35.30
2017-07-18T13:55:57.460Z,39.00
2017-07-18T13:58:25.552Z,39.00
2017-07-18T14:00:54.843Z,37.60
2017-07-18T14:03:22.494Z,37.40
2017-07-18T14:05:50.318Z,37.30
2017-07-18T14:08:18.136Z,37.40
2017-07-18T14:10:46.053Z,37.40
2017-07-18T14:13:13.888Z,37.90
2017-07-18T14:15:43.018Z,39.00
2017-07-18T14:18:11.090Z,39.00
2017-07-18T14:20:38.804Z,37.50
2017-07-18T14:23:07.117Z,35.90
2017-07-18T14:25:35.262Z,36.10
2017-07-18T14:28:03.207Z,34.50
2017-07-18T14:30:31.390Z,37.70
2017-07-18T14:32:59.325Z,37.40
2017-07-18T14:35:27.924Z,37.30
2017-07-18T14:37:55.852Z,36.50
2017-07-18T14:40:23.847Z,37.70
2017-07-18T14:42:51.707Z,36.50
2017-07-18T14:45:19.789Z,38.10
2017-07-18T14:47:47.612Z,36.40
2017-07-18T14:50:17.077Z,39.70
2017-07-18T14:52:44.548Z,39.10
2017-07-18T14:55:12.026Z,38.40
2017-07-18T14:57:39.519Z,35.20
2017-07-18T15:00:06.993Z,37.90
2017-07-18T15:02:34.479Z,36.90
2017-07-18T15:05:01.970Z,39.50
2017-07-18T15:07:30.217Z,36.00
2017-07-18T15:09:57.700Z,36.10
2017-07-18T15:12:25.195Z,37.60
2017-07-18T15:14:52.698Z,37.00
2017-07-18T15:17:20.187Z,38.30
2017-07-18T15:19:48.470Z,38.20
2017-07-18T15:22:16.718Z,35.90
2017-07-18T15:24:44.195Z,35.80
2017-07-18T15:27:11.690Z,36.70
2017-07-18T15:29:39.780Z,36.20
2017-07-18T15:32:07.265Z,38.00
2017-07-18T15:34:34.771Z,37.40
2017-07-18T15:37:02.257Z,39.70
2017-07-18T15:39:29.733Z,36.60
2017-07-18T15:41:57.259Z,37.80
2017-07-18T15:44:24.756Z,39.60
2017-07-18T15:46:52.243Z,39.70
2017-07-18T15:49:20.494Z,38.60
2017-07-18T15:51:47.988Z,39.10
2017-07-18T15:54:16.227Z,39.10
2017-07-18T15:56:43.714Z,39.20
2017-07-18T15:59:11.981Z,37.30
2017-07-18T16:01:39.477Z,37.30
2017-07-18T16:04:06.973Z,37.10
2017-07-18T16:06:34.441Z,36.90
2017-07-18T16:09:01.969Z,39.50
2017-07-18T16:11:29.530Z,35.50
2017-07-18T16:13:57.001Z,35.70
2017-07-18T16:16:24.486Z,38.30
2017-07-18T16:18:51.973Z,37.60
2017-07-18T16:21:20.251Z,39.00
2017-07-18T16:23:48.871Z,38.30
2017-07-18T16:26:16.934Z,38.30
2017-07-18T16:28:45.218Z,37.10
2017-07-18T16:31:13.190Z,36.60
2017-07-18T16:33:41.176Z,37.30
2017-07-18T16:36:09.207Z,37.60
2017-07-18T16:38:37.487Z,35.80
2017-07-18T16:41:06.853Z,37.90
2017-07-18T16:43:34.441Z,37.20
2017-07-18T16:46:02.870Z,35.40
2017-07-18T16:48:30.857Z,35.60
2017-07-18T16:50:59.222Z,39.60
2017-07-18T16:53:27.416Z,38.30
2017-07-18T16:55:55.143Z,38.30
2017-07-18T16:58:22.622Z,35.20
2017-07-18T17:00:50.092Z,37.60
2017-07-18T17:03:17.603Z,35.00
2017-07-18T17:05:45.099Z,38.00
2017-07-18T17:08:12.573Z,35.60
2017-07-18T17:10:40.063Z,39.60
2017-07-18T17:13:08.308Z,35.10
2017-07-18T17:15:35.786Z,35.00
2017-07-18T17:18:03.293Z,38.70
2017-07-18T17:20:30.771Z,37.10
2017-07-18T17:22:58.245Z,39.40
2017-07-18T17:25:25.755Z,39.60
2017-07-18T17:27:53.249Z,36.30
2017-07-18T17:30:20.728Z,36.30
2017-07-18T17:32:48.224Z,39.70
2017-07-18T17:35:16.523Z,36.80
2017-07-18T17:37:44.011Z,36.70
2017-07-18T17:40:11.512Z,39.60
2017-07-18T17:42:39.779Z,37.70
2017-07-18T17:45:08.027Z,37.50
2017-07-18T17:47:35.523Z,37.60
2017-07-18T17:50:03.770Z,40.20
2017-07-18T17:52:31.261Z,39.90
2017-07-18T17:54:58.749Z,40.20
2017-07-18T17:57:26.227Z,40.40
2017-07-18T17:59:53.706Z,41.20
2017-07-18T18:02:21.203Z,40.60
2017-07-18T18:04:48.682Z,39.80
2017-07-18T18:07:16.149Z,38.90
2017-07-18T18:09:43.642Z,39.70
2017-07-18T18:12:11.126Z,41.30
2017-07-18T18:14:39.373Z,41.00
2017-07-18T18:17:06.871Z,41.00
2017-07-18T18:19:34.354Z,40.60
2017-07-18T18:22:01.838Z,40.40
2017-07-18T18:24:29.358Z,40.30
2017-07-18T18:26:56.850Z,39.90
2017-07-18T18:29:24.364Z,39.50
2017-07-18T18:31:52.627Z,39.40
2017-07-18T18:34:20.114Z,39.30
2017-07-18T18:36:47.587Z,41.10
2017-07-18T18:39:15.082Z,39.50
2017-07-18T18:41:42.560Z,40.00
2017-07-18T18:44:10.802Z,40.20
2017-07-18T18:46:38.303Z,40.60
2017-07-18T18:49:05.799Z,40.00
2017-07-18T18:51:33.297Z,38.10
2017-07-18T18:54:00.789Z,38.40
2017-07-18T18:56:29.054Z,38.10
2017-07-18T18:58:56.557Z,38.10
2017-07-18T19:01:24.056Z,37.90
2017-07-18T19:03:52.328Z,38.20
2017-07-18T19:06:19.806Z,38.20
2017-07-18T19:08:48.054Z,38.30
2017-07-18T19:11:15.537Z,37.80
2017-07-18T19:13:43.013Z,37.60
2017-07-18T19:16:11.278Z,37.90
2017-07-18T19:18:38.779Z,37.80
2017-07-18T19:21:06.257Z,38.30
2017-07-18T19:23:33.756Z,38.10
2017-07-18T19:26:01.997Z,38.70
2017-07-18T19:28:29.474Z,37.90
2017-07-18T19:30:58.349Z,38.20
2017-07-18T19:33:25.943Z,38.30
2017-07-18T19:35:54.448Z,38.80
2017-07-18T19:38:22.171Z,38.40
2017-07-18T19:40:49.651Z,38.60
2017-07-18T19:43:17.947Z,38.70
2017-07-18T19:45:45.755Z,38.40
2017-07-18T19:48:14.935Z,38.50
2017-07-18T19:50:42.613Z,38.50
2017-07-18T19:53:10.570Z,38.90
2017-07-18T19:55:39.382Z,38.60
2017-07-18T19:58:07.686Z,38.50
2017-07-18T20:00:36.906Z,38.40
2017-07-18T20:03:05.627Z,38.40
2017-07-18T20:05:34.908Z,38.20
2017-07-18T20:08:03.919Z,38.40
2017-07-18T20:10:32.363Z,39.20
2017-07-18T20:13:01.145Z,40.10
2017-07-18T20:15:29.471Z,40.70
2017-07-18T20:17:56.954Z,40.80
2017-07-18T20:20:25.015Z,41.10
2017-07-18T20:22:53.621Z,41.20
2017-07-18T20:25:23.914Z,41.50
2017-07-18T20:27:51.438Z,41.30
2017-07-18T20:30:18.951Z,41.20
2017-07-18T20:32:46.444Z,41.20
2017-07-18T20:35:14.713Z,40.70
2017-07-18T20:37:42.222Z,41.20
2017-07-18T20:40:09.710Z,41.10
2017-07-18T20:42:37.202Z,41.10
2017-07-18T20:45:04.717Z,41.30
2017-07-18T20:47:32.223Z,41.80
2017-07-18T20:50:00.499Z,41.40
2017-07-18T20:52:28.011Z,41.40
2017-07-18T20:54:55.494Z,41.20
2017-07-18T20:57:22.994Z,40.80
2017-07-18T20:59:50.503Z,40.70
2017-07-18T21:02:17.994Z,41.10
2017-07-18T21:04:45.488Z,41.50
2017-07-18T21:07:12.982Z,41.60
2017-07-18T21:09:44.983Z,40.70
2017-07-18T21:12:13.091Z,41.70
2017-07-18T21:14:40.856Z,42.00
2017-07-18T21:17:08.346Z,42.00
2017-07-18T21:19:35.852Z,42.20
2017-07-18T21:22:03.495Z,42.10
2017-07-18T21:24:31.195Z,42.10
2017-07-18T21:26:58.902Z,42.10
2017-07-18T21:29:26.383Z,42.00
2017-07-18T21:31:53.867Z,41.90
2017-07-18T21:34:21.568Z,42.70
2017-07-18T21:36:49.251Z,41.80
2017-07-18T21:39:16.873Z,41.90
2017-07-18T21:41:44.893Z,42.20
2017-07-18T21:44:12.450Z,41.90
2017-07-18T21:46:40.080Z,42.00
2017-07-18T21:49:07.672Z,42.20
2017-07-18T21:51:35.157Z,42.20
2017-07-18T21:54:03.642Z,42.20
2017-07-18T21:56:31.903Z,42.20
2017-07-18T21:59:00.237Z,41.90
2017-07-18T22:01:27.989Z,42.30
2017-07-18T22:03:55.598Z,42.10
2017-07-18T22:06:23.071Z,42.00
2017-07-18T22:08:50.558Z,42.60
2017-07-18T22:11:18.044Z,42.70
2017-07-18T22:13:45.527Z,42.70
2017-07-18T22:16:13.007Z,42.90
2017-07-18T22:18:40.489Z,42.90
2017-07-18T22:21:07.995Z,43.10
2017-07-18T22:23:35.469Z,43.20
2017-07-18T22:26:02.963Z,43.20
2017-07-18T22:28:30.462Z,43.30
2017-07-18T22:30:57.941Z,43.10
2017-07-18T22:33:25.509Z,43.70
2017-07-18T22:35:52.998Z,43.90
2017-07-18T22:38:20.480Z,44.30
2017-07-18T22:40:47.977Z,44.30
2017-07-18T22:43:15.457Z,44.40
2017-07-18T22:45:43.707Z,44.80
2017-07-18T22:48:11.204Z,44.70
2017-07-18T22:50:38.690Z,44.60
2017-07-18T22:53:06.183Z,44.70
2017-07-18T22:55:33.666Z,44.50
2017-07-18T22:58:01.932Z,45.30
2017-07-18T23:00:29.411Z,44.60
2017-07-18T23:02:56.899Z,44.50
2017-07-18T23:05:24.382Z,44.90
2017-07-18T23:07:51.864Z,44.90
2017-07-18T23:10:19.349Z,45.00
2017-07-18T23:12:46.832Z,45.00
2017-07-18T23:15:14.320Z,45.00
2017-07-18T23:17:41.822Z,45.00
2017-07-18T23:20:09.316Z,45.10
2017-07-18T23:22:36.799Z,45.20
2017-07-18T23:25:04.294Z,44.80
2017-07-18T23:27:31.794Z,45.10
2017-07-18T23:29:59.277Z,44.90
2017-07-18T23:32:26.772Z,44.70
2017-07-18T23:34:54.257Z,45.00
2017-07-18T23:37:21.740Z,45.00
2017-07-18T23:39:49.227Z,45.40
2017-07-18T23:42:16.699Z,45.40
2017-07-18T23:44:44.183Z,45.20
2017-07-18T23:47:11.674Z,45.10
2017-07-18T23:49:39.155Z,45.20
2017-07-18T23:52:06.642Z,45.00
2017-07-18T23:54:34.917Z,44.00
2017-07-18T23:57:03.171Z,44.90
2017-07-18T23:59:30.646Z,44.80
